createdAt,value
2018-09-04T00:00:48.035Z,1011.56
2018-09-04T00:01:57.209Z,1011.59
2018-09-04T00:03:06.896Z,1011.58
2018-09-04T00:04:16.585Z,1011.57
2018-09-04T00:05:25.795Z,1011.56
2018-09-04T00:06:34.974Z,1011.57
2018-09-04T00:07:44.416Z,1011.58
2018-09-04T00:08:53.830Z,1011.59
2018-09-04T00:10:03.507Z,1011.63
2018-09-04T00:11:12.939Z,1011.6
2018-09-04T00:12:22.613Z,1011.58
2018-09-04T00:13:32.620Z,1011.59
2018-09-04T00:14:42.303Z,1011.58
2018-09-04T00:15:52.016Z,1011.61
2018-09-04T00:17:01.718Z,1011.61
2018-09-04T00:18:11.147Z,1011.57
2018-09-04T00:19:20.042Z,1011.6
2018-09-04T00:20:28.697Z,1011.55
2018-09-04T00:21:37.611Z,1011.56
2018-09-04T00:22:47.296Z,1011.56
2018-09-04T00:23:56.714Z,1011.59
2018-09-04T00:25:05.616Z,1011.59
2018-09-04T00:26:14.780Z,1011.57
2018-09-04T00:27:24.022Z,1011.57
2018-09-04T00:28:33.713Z,1011.55
2018-09-04T00:29:43.154Z,1011.53
2018-09-04T00:30:52.391Z,1011.57
2018-09-04T00:32:02.070Z,1011.48
2018-09-04T00:33:11.496Z,1011.52
2018-09-04T00:34:20.968Z,1011.5
2018-09-04T00:35:31.558Z,1011.55
2018-09-04T00:36:40.973Z,1011.53
2018-09-04T00:37:50.450Z,1011.51
2018-09-04T00:38:59.866Z,1011.51
2018-09-04T00:40:08.776Z,1011.52
2018-09-04T00:41:17.942Z,1011.49
2018-09-04T00:42:27.106Z,1011.53
2018-09-04T00:43:36.001Z,1011.51
2018-09-04T00:44:45.428Z,1011.51
2018-09-04T00:45:54.357Z,1011.46
2018-09-04T00:47:04.283Z,1011.45
2018-09-04T00:48:14.219Z,1011.47
2018-09-04T00:49:23.628Z,1011.48
2018-09-04T00:50:33.569Z,1011.47
2018-09-04T00:51:42.984Z,1011.49
2018-09-04T00:52:52.148Z,1011.47
2018-09-04T00:54:01.302Z,1011.47
2018-09-04T00:55:10.474Z,1011.49
2018-09-04T00:56:19.909Z,1011.51
2018-09-04T00:57:29.335Z,1011.49
2018-09-04T00:58:39.209Z,1011.46
2018-09-04T00:59:48.955Z,1011.47
2018-09-04T01:00:57.862Z,1011.44
2018-09-04T01:02:07.546Z,1011.44
2018-09-04T01:03:17.228Z,1011.45
2018-09-04T01:04:26.901Z,1011.48
2018-09-04T01:05:36.854Z,1011.47
2018-09-04T01:06:46.062Z,1011.45
2018-09-04T01:07:55.223Z,1011.47
2018-09-04T01:09:04.898Z,1011.5
2018-09-04T01:10:14.045Z,1011.54
2018-09-04T01:11:23.473Z,1011.49
2018-09-04T01:12:32.641Z,1011.49
2018-09-04T01:13:42.328Z,1011.48
2018-09-04T01:14:51.735Z,1011.49
2018-09-04T01:16:01.166Z,1011.49
2018-09-04T01:17:10.583Z,1011.5
2018-09-04T01:19:28.644Z,1011.53
2018-09-04T01:20:38.568Z,1011.48
2018-09-04T01:21:48.243Z,1011.53
2018-09-04T01:22:57.487Z,1011.52
2018-09-04T01:24:06.911Z,1011.47
2018-09-04T01:25:16.625Z,1011.48
2018-09-04T01:26:26.050Z,1011.5
2018-09-04T01:27:35.240Z,1011.47
2018-09-04T01:28:44.659Z,1011.52
2018-09-04T01:29:53.339Z,1011.54
2018-09-04T01:31:02.515Z,1011.58
2018-09-04T01:32:11.690Z,1011.59
2018-09-04T01:33:20.856Z,1011.59
2018-09-04T01:34:30.033Z,1011.57
2018-09-04T01:35:39.711Z,1011.59
2018-09-04T01:36:49.398Z,1011.58
2018-09-04T01:37:58.826Z,1011.56
2018-09-04T01:39:08.995Z,1011.53
2018-09-04T01:40:18.414Z,1011.54
2018-09-04T01:41:27.317Z,1011.55
2018-09-04T01:42:36.209Z,1011.55
2018-09-04T01:43:46.181Z,1011.54
2018-09-04T01:44:55.088Z,1011.56
2018-09-04T01:46:04.492Z,1011.53
2018-09-04T01:47:14.175Z,1011.53
2018-09-04T01:48:23.906Z,1011.48
2018-09-04T01:49:33.591Z,1011.53
2018-09-04T01:50:43.001Z,1011.49
2018-09-04T01:51:52.670Z,1011.52
2018-09-04T01:53:02.117Z,1011.54
2018-09-04T01:54:11.540Z,1011.53
2018-09-04T01:55:21.218Z,1011.52
2018-09-04T01:56:30.424Z,1011.46
2018-09-04T01:57:39.613Z,1011.49
2018-09-04T01:58:49.286Z,1011.47
2018-09-04T01:59:58.782Z,1011.47
2018-09-04T02:01:08.206Z,1011.45
2018-09-04T02:02:17.621Z,1011.49
2018-09-04T02:03:26.522Z,1011.44
2018-09-04T02:04:35.441Z,1011.47
2018-09-04T02:05:44.904Z,1011.47
2018-09-04T02:06:53.810Z,1011.45
2018-09-04T02:08:03.227Z,1011.46
2018-09-04T02:09:12.646Z,1011.4
2018-09-04T02:10:22.594Z,1011.43
2018-09-04T02:11:32.109Z,1011.44
2018-09-04T02:12:41.568Z,1011.47
2018-09-04T02:13:51.002Z,1011.43
2018-09-04T02:15:00.432Z,1011.43
2018-09-04T02:16:09.608Z,1011.43
2018-09-04T02:17:18.772Z,1011.43
2018-09-04T02:18:28.212Z,1011.41
2018-09-04T02:19:37.383Z,1011.4
2018-09-04T02:20:46.801Z,1011.42
2018-09-04T02:21:55.967Z,1011.47
2018-09-04T02:23:05.671Z,1011.45
2018-09-04T02:24:15.656Z,1011.47
2018-09-04T02:25:24.567Z,1011.42
2018-09-04T02:26:33.737Z,1011.41
2018-09-04T02:27:42.948Z,1011.42
2018-09-04T02:28:52.110Z,1011.41
2018-09-04T02:30:02.058Z,1011.39
2018-09-04T02:31:12.019Z,1011.44
2018-09-04T02:32:21.955Z,1011.36
2018-09-04T02:33:31.142Z,1011.42
2018-09-04T02:34:40.897Z,1011.42
2018-09-04T02:35:50.838Z,1011.39
2018-09-04T02:37:00.789Z,1011.41
2018-09-04T02:38:10.480Z,1011.38
2018-09-04T02:39:20.155Z,1011.42
2018-09-04T02:40:29.578Z,1011.41
2018-09-04T02:41:39.255Z,1011.44
2018-09-04T02:42:48.945Z,1011.44
2018-09-04T02:43:58.782Z,1011.41
2018-09-04T02:45:08.471Z,1011.37
2018-09-04T02:46:18.140Z,1011.39
2018-09-04T02:47:27.596Z,1011.38
2018-09-04T02:48:36.764Z,1011.38
2018-09-04T02:49:46.183Z,1011.4
2018-09-04T02:50:55.607Z,1011.39
2018-09-04T02:52:04.261Z,1011.35
2018-09-04T02:53:13.939Z,1011.33
2018-09-04T02:54:22.872Z,1011.35
2018-09-04T02:55:31.778Z,1011.39
2018-09-04T02:56:41.711Z,1011.38
2018-09-04T02:57:51.133Z,1011.4
2018-09-04T02:59:00.278Z,1011.38
2018-09-04T03:00:09.447Z,1011.39
2018-09-04T03:01:19.406Z,1011.39
2018-09-04T03:02:29.107Z,1011.39
2018-09-04T03:03:38.566Z,1011.43
2018-09-04T03:04:47.981Z,1011.44
2018-09-04T03:05:57.456Z,1011.46
2018-09-04T03:07:06.916Z,1011.47
2018-09-04T03:08:16.092Z,1011.47
2018-09-04T03:09:25.515Z,1011.48
2018-09-04T03:10:35.473Z,1011.44
2018-09-04T03:11:45.153Z,1011.43
2018-09-04T03:12:54.835Z,1011.41
2018-09-04T03:14:03.987Z,1011.43
2018-09-04T03:15:13.710Z,1011.41
2018-09-04T03:16:22.871Z,1011.4
2018-09-04T03:17:31.832Z,1011.4
2018-09-04T03:18:41.767Z,1011.44
2018-09-04T03:19:51.535Z,1011.42
2018-09-04T03:21:01.479Z,1011.38
2018-09-04T03:22:10.899Z,1011.4
2018-09-04T03:23:20.577Z,1011.37
2018-09-04T03:24:29.982Z,1011.39
2018-09-04T03:25:39.437Z,1011.39
2018-09-04T03:26:48.335Z,1011.41
2018-09-04T03:27:57.797Z,1011.36
2018-09-04T03:29:07.809Z,1011.38
2018-09-04T03:30:16.976Z,1011.39
2018-09-04T03:31:26.951Z,1011.42
2018-09-04T03:32:36.634Z,1011.38
2018-09-04T03:33:46.087Z,1011.42
2018-09-04T03:34:56.031Z,1011.43
2018-09-04T03:36:05.707Z,1011.45
2018-09-04T03:37:14.858Z,1011.42
2018-09-04T03:38:24.820Z,1011.41
2018-09-04T03:39:34.275Z,1011.43
2018-09-04T03:40:44.223Z,1011.4
2018-09-04T03:41:54.192Z,1011.43
2018-09-04T03:43:03.621Z,1011.44
2018-09-04T03:44:13.323Z,1011.41
2018-09-04T03:45:22.812Z,1011.4
2018-09-04T03:46:31.979Z,1011.38
2018-09-04T03:47:41.404Z,1011.43
2018-09-04T03:48:51.110Z,1011.42
2018-09-04T03:50:00.790Z,1011.39
2018-09-04T03:51:10.716Z,1011.42
2018-09-04T03:52:19.926Z,1011.39
2018-09-04T03:53:30.149Z,1011.4
2018-09-04T03:54:39.566Z,1011.39
2018-09-04T03:55:49.051Z,1011.37
2018-09-04T03:56:57.971Z,1011.43
2018-09-04T03:58:07.661Z,1011.41
2018-09-04T03:59:17.100Z,1011.42
2018-09-04T04:00:26.310Z,1011.41
2018-09-04T04:01:36.172Z,1011.46
2018-09-04T04:02:45.669Z,1011.41
2018-09-04T04:03:55.348Z,1011.41
2018-09-04T04:05:05.019Z,1011.42
2018-09-04T04:06:14.207Z,1011.44
2018-09-04T04:07:23.624Z,1011.45
2018-09-04T04:08:33.299Z,1011.41
2018-09-04T04:09:42.727Z,1011.41
2018-09-04T04:10:52.414Z,1011.42
2018-09-04T04:12:02.191Z,1011.45
2018-09-04T04:13:11.916Z,1011.4
2018-09-04T04:14:21.601Z,1011.45
2018-09-04T04:15:31.091Z,1011.42
2018-09-04T04:16:40.777Z,1011.43
2018-09-04T04:17:50.711Z,1011.45
2018-09-04T04:19:00.681Z,1011.46
2018-09-04T04:20:10.625Z,1011.45
2018-09-04T04:21:20.048Z,1011.46
2018-09-04T04:22:29.981Z,1011.51
2018-09-04T04:23:39.651Z,1011.49
2018-09-04T04:24:49.260Z,1011.52
2018-09-04T04:25:59.179Z,1011.53
2018-09-04T04:27:09.135Z,1011.57
2018-09-04T04:28:19.056Z,1011.54
2018-09-04T04:29:29.024Z,1011.52
2018-09-04T04:30:38.448Z,1011.54
2018-09-04T04:31:48.120Z,1011.55
2018-09-04T04:32:57.389Z,1011.52
2018-09-04T04:34:07.125Z,1011.52
2018-09-04T04:35:16.840Z,1011.5
2018-09-04T04:36:26.284Z,1011.49
2018-09-04T04:37:35.757Z,1011.54
2018-09-04T04:38:45.437Z,1011.52
2018-09-04T04:39:54.878Z,1011.55
2018-09-04T04:41:04.864Z,1011.54
2018-09-04T04:42:14.823Z,1011.52
2018-09-04T04:43:23.762Z,1011.5
2018-09-04T04:44:33.459Z,1011.56
2018-09-04T04:45:42.901Z,1011.57
2018-09-04T04:46:52.365Z,1011.59
2018-09-04T04:48:02.395Z,1011.62
2018-09-04T04:49:11.945Z,1011.63
2018-09-04T04:50:21.358Z,1011.66
2018-09-04T04:51:31.063Z,1011.67
2018-09-04T04:52:40.733Z,1011.65
2018-09-04T04:53:50.425Z,1011.65
2018-09-04T04:55:00.378Z,1011.66
2018-09-04T04:56:09.799Z,1011.65
2018-09-04T04:57:18.966Z,1011.65
2018-09-04T04:58:28.485Z,1011.58
2018-09-04T04:59:37.907Z,1011.62
2018-09-04T05:00:47.345Z,1011.59
2018-09-04T05:01:55.990Z,1011.58
2018-09-04T05:03:05.400Z,1011.57
2018-09-04T05:04:15.094Z,1011.57
2018-09-04T05:05:24.524Z,1011.58
2018-09-04T05:06:33.700Z,1011.58
2018-09-04T05:07:43.125Z,1011.59
2018-09-04T05:08:52.812Z,1011.62
2018-09-04T05:10:02.252Z,1011.61
2018-09-04T05:11:12.217Z,1011.64
2018-09-04T05:12:22.524Z,1011.63
2018-09-04T05:13:32.233Z,1011.66
2018-09-04T05:14:41.689Z,1011.72
2018-09-04T05:15:51.418Z,1011.69
2018-09-04T05:17:00.072Z,1011.69
2018-09-04T05:18:09.757Z,1011.69
2018-09-04T05:19:19.602Z,1011.73
2018-09-04T05:20:29.029Z,1011.73
2018-09-04T05:21:38.700Z,1011.75
2018-09-04T05:22:47.882Z,1011.76
2018-09-04T05:23:57.278Z,1011.75
2018-09-04T05:25:06.738Z,1011.77
2018-09-04T05:26:16.419Z,1011.76
2018-09-04T05:27:26.093Z,1011.76
2018-09-04T05:28:35.314Z,1011.76
2018-09-04T05:29:44.209Z,1011.78
2018-09-04T05:30:53.140Z,1011.79
2018-09-04T05:32:02.310Z,1011.78
2018-09-04T05:33:11.730Z,1011.84
2018-09-04T05:34:21.218Z,1011.82
2018-09-04T05:35:30.373Z,1011.83
2018-09-04T05:36:40.147Z,1011.83
2018-09-04T05:37:49.918Z,1011.87
2018-09-04T05:38:59.910Z,1011.87
2018-09-04T05:40:10.093Z,1011.88
2018-09-04T05:41:19.320Z,1011.88
2018-09-04T05:42:28.770Z,1011.85
2018-09-04T05:43:39.201Z,1011.89
2018-09-04T05:44:48.628Z,1011.92
2018-09-04T05:45:58.306Z,1011.95
2018-09-04T05:47:08.020Z,1011.92
2018-09-04T05:48:17.010Z,1011.93
2018-09-04T05:49:26.467Z,1011.93
2018-09-04T05:50:35.893Z,1011.98
2018-09-04T05:51:45.583Z,1011.93
2018-09-04T05:52:55.019Z,1011.98
2018-09-04T05:54:04.245Z,1012.02
2018-09-04T05:55:14.020Z,1012.01
2018-09-04T05:56:24.624Z,1011.96
2018-09-04T05:57:34.049Z,1012.03
2018-09-04T05:58:43.274Z,1012.03
2018-09-04T05:59:52.296Z,1012.05
2018-09-04T06:01:01.492Z,1012.06
2018-09-04T06:02:11.165Z,1012.02
2018-09-04T06:03:20.346Z,1012.03
2018-09-04T06:04:29.689Z,1011.99
2018-09-04T06:05:39.619Z,1012
2018-09-04T06:06:48.600Z,1012
2018-09-04T06:07:58.287Z,1011.97
2018-09-04T06:09:07.790Z,1011.95
2018-09-04T06:10:17.795Z,1011.97
2018-09-04T06:11:27.237Z,1011.96
2018-09-04T06:12:36.695Z,1011.96
2018-09-04T06:13:46.154Z,1011.94
2018-09-04T06:14:55.629Z,1011.99
2018-09-04T06:16:05.308Z,1011.95
2018-09-04T06:17:15.098Z,1011.95
2018-09-04T06:18:24.515Z,1011.94
2018-09-04T06:19:34.214Z,1011.98
2018-09-04T06:20:43.960Z,1011.94
2018-09-04T06:21:53.407Z,1011.95
2018-09-04T06:23:03.717Z,1011.99
2018-09-04T06:24:12.628Z,1011.94
2018-09-04T06:25:22.822Z,1011.97
2018-09-04T06:26:33.139Z,1011.94
2018-09-04T06:27:43.274Z,1011.98
2018-09-04T06:28:52.720Z,1011.98
2018-09-04T06:30:01.869Z,1011.99
2018-09-04T06:31:11.288Z,1012.04
2018-09-04T06:32:20.967Z,1012.03
2018-09-04T06:33:30.900Z,1012.05
2018-09-04T06:34:40.620Z,1012.02
2018-09-04T06:35:50.122Z,1012.01
2018-09-04T06:36:59.567Z,1012.01
2018-09-04T06:38:09.036Z,1012.01
2018-09-04T06:39:18.457Z,1012
2018-09-04T06:40:28.211Z,1012.03
2018-09-04T06:41:37.223Z,1011.99
2018-09-04T06:42:47.166Z,1012
2018-09-04T06:43:56.074Z,1012.06
2018-09-04T06:45:04.984Z,1012.05
2018-09-04T06:46:14.669Z,1012.09
2018-09-04T06:47:24.423Z,1012.09
2018-09-04T06:48:33.850Z,1012.09
2018-09-04T06:49:43.033Z,1012.13
2018-09-04T06:50:52.462Z,1012.14
2018-09-04T06:52:01.632Z,1012.18
2018-09-04T06:53:10.802Z,1012.16
2018-09-04T06:54:20.477Z,1012.2
2018-09-04T06:55:30.634Z,1012.2
2018-09-04T06:56:40.313Z,1012.2
2018-09-04T06:57:49.745Z,1012.15
2018-09-04T06:58:59.915Z,1012.15
2018-09-04T07:00:09.079Z,1012.17
2018-09-04T07:01:18.507Z,1012.15
2018-09-04T07:02:28.239Z,1012.16
2018-09-04T07:03:37.421Z,1012.13
2018-09-04T07:04:46.593Z,1012.13
2018-09-04T07:05:56.047Z,1012.14
2018-09-04T07:07:05.599Z,1012.16
2018-09-04T07:08:15.008Z,1012.16
2018-09-04T07:09:23.645Z,1012.16
2018-09-04T07:10:33.068Z,1012.15
2018-09-04T07:11:42.496Z,1012.16
2018-09-04T07:12:51.690Z,1012.16
2018-09-04T07:14:01.434Z,1012.2
2018-09-04T07:15:10.596Z,1012.19
2018-09-04T07:16:20.019Z,1012.26
2018-09-04T07:17:30.013Z,1012.25
2018-09-04T07:18:39.445Z,1012.22
2018-09-04T07:19:48.914Z,1012.23
2018-09-04T07:20:58.096Z,1012.2
2018-09-04T07:22:08.050Z,1012.2
2018-09-04T07:23:17.208Z,1012.17
2018-09-04T07:24:26.889Z,1012.11
2018-09-04T07:25:36.359Z,1012.1
2018-09-04T07:26:45.531Z,1012.12
2018-09-04T07:27:54.423Z,1012.14
2018-09-04T07:29:03.609Z,1012.13
2018-09-04T07:30:13.291Z,1012.16
2018-09-04T07:31:23.227Z,1012.14
2018-09-04T07:32:32.930Z,1012.14
2018-09-04T07:33:42.362Z,1012.16
2018-09-04T07:34:52.044Z,1012.19
2018-09-04T07:36:01.726Z,1012.24
2018-09-04T07:37:10.896Z,1012.23
2018-09-04T07:38:20.341Z,1012.29
2018-09-04T07:39:29.555Z,1012.25
2018-09-04T07:40:39.033Z,1012.27
2018-09-04T07:41:48.468Z,1012.26
2018-09-04T07:42:57.671Z,1012.25
2018-09-04T07:44:06.309Z,1012.25
2018-09-04T07:45:15.748Z,1012.21
2018-09-04T07:46:25.429Z,1012.22
2018-09-04T07:47:35.379Z,1012.19
2018-09-04T07:48:44.563Z,1012.23
2018-09-04T07:49:53.479Z,1012.18
2018-09-04T07:51:02.927Z,1012.19
2018-09-04T07:52:12.633Z,1012.21
2018-09-04T07:53:22.079Z,1012.24
2018-09-04T07:54:32.013Z,1012.21
2018-09-04T07:55:41.468Z,1012.18
2018-09-04T07:56:50.390Z,1012.17
2018-09-04T07:57:59.905Z,1012.17
2018-09-04T07:59:09.599Z,1012.21
2018-09-04T08:00:18.757Z,1012.22
2018-09-04T08:01:28.200Z,1012.18
2018-09-04T08:02:38.133Z,1012.2
2018-09-04T08:03:47.556Z,1012.23
2018-09-04T08:04:56.791Z,1012.24
2018-09-04T08:06:05.974Z,1012.24
2018-09-04T08:07:15.389Z,1012.29
2018-09-04T08:08:24.549Z,1012.27
2018-09-04T08:09:34.221Z,1012.3
2018-09-04T08:10:43.652Z,1012.32
2018-09-04T08:11:53.085Z,1012.3
2018-09-04T08:13:02.519Z,1012.29
2018-09-04T08:14:12.027Z,1012.32
2018-09-04T08:15:21.739Z,1012.3
2018-09-04T08:16:31.435Z,1012.3
2018-09-04T08:17:40.869Z,1012.27
2018-09-04T08:18:50.723Z,1012.31
2018-09-04T08:20:00.401Z,1012.33
2018-09-04T08:21:09.699Z,1012.3
2018-09-04T08:22:19.396Z,1012.31
2018-09-04T08:23:28.582Z,1012.28
2018-09-04T08:24:38.011Z,1012.31
2018-09-04T08:25:47.804Z,1012.3
2018-09-04T08:26:57.524Z,1012.27
2018-09-04T08:28:06.707Z,1012.29
2018-09-04T08:29:16.174Z,1012.31
2018-09-04T08:30:25.611Z,1012.31
2018-09-04T08:31:35.035Z,1012.32
2018-09-04T08:32:44.204Z,1012.35
2018-09-04T08:33:53.862Z,1012.34
2018-09-04T08:35:03.814Z,1012.38
2018-09-04T08:36:13.738Z,1012.41
2018-09-04T08:37:23.178Z,1012.36
2018-09-04T08:38:32.842Z,1012.36
2018-09-04T08:39:42.526Z,1012.35
2018-09-04T08:40:51.971Z,1012.28
2018-09-04T08:42:01.129Z,1012.29
2018-09-04T08:43:10.582Z,1012.29
2018-09-04T08:44:20.012Z,1012.29
2018-09-04T08:45:29.182Z,1012.29
2018-09-04T08:46:38.390Z,1012.29
2018-09-04T08:47:47.485Z,1012.29
2018-09-04T08:48:56.649Z,1012.33
2018-09-04T08:50:06.072Z,1012.34
2018-09-04T08:51:15.743Z,1012.33
2018-09-04T08:52:25.703Z,1012.35
2018-09-04T08:53:35.262Z,1012.37
2018-09-04T08:54:45.129Z,1012.39
2018-09-04T08:55:54.586Z,1012.35
2018-09-04T08:57:04.009Z,1012.35
2018-09-04T08:58:14.000Z,1012.37
2018-09-04T08:59:23.694Z,1012.31
2018-09-04T09:00:34.071Z,1012.25
2018-09-04T09:01:43.954Z,1012.28
2018-09-04T09:02:54.573Z,1012.31
2018-09-04T09:04:03.902Z,1012.32
2018-09-04T09:05:13.687Z,1012.28
2018-09-04T09:06:23.928Z,1012.3
2018-09-04T09:07:34.073Z,1012.3
2018-09-04T09:08:44.034Z,1012.32
2018-09-04T09:09:54.719Z,1012.29
2018-09-04T09:11:04.628Z,1012.26
2018-09-04T09:12:14.259Z,1012.26
2018-09-04T09:13:23.703Z,1012.26
2018-09-04T09:14:33.370Z,1012.2
2018-09-04T09:15:42.829Z,1012.15
2018-09-04T09:16:52.465Z,1012.19
2018-09-04T09:18:01.636Z,1012.2
2018-09-04T09:19:11.125Z,1012.14
2018-09-04T09:20:20.913Z,1012.14
2018-09-04T09:21:30.080Z,1012.08
2018-09-04T09:22:39.791Z,1012.07
2018-09-04T09:23:49.143Z,1012.06
2018-09-04T09:24:58.611Z,1012.07
2018-09-04T09:26:07.789Z,1012.06
2018-09-04T09:27:16.944Z,1012.06
2018-09-04T09:28:26.346Z,1012.09
2018-09-04T09:29:35.751Z,1012.08
2018-09-04T09:30:45.001Z,1012.06
2018-09-04T09:31:54.169Z,1012.03
2018-09-04T09:33:03.856Z,1012.05
2018-09-04T09:34:13.356Z,1012.01
2018-09-04T09:35:23.291Z,1012.05
2018-09-04T09:36:33.016Z,1012
2018-09-04T09:37:43.355Z,1012.03
2018-09-04T09:38:52.544Z,1012.01
2018-09-04T09:40:01.969Z,1012.07
2018-09-04T09:41:11.669Z,1012.03
2018-09-04T09:42:21.350Z,1012.03
2018-09-04T09:43:30.824Z,1012.06
2018-09-04T09:44:40.524Z,1012.05
2018-09-04T09:45:50.209Z,1012.03
2018-09-04T09:46:59.454Z,1012
2018-09-04T09:48:08.640Z,1012.02
2018-09-04T09:49:17.858Z,1012.03
2018-09-04T09:50:27.311Z,1012.01
2018-09-04T09:51:36.742Z,1012.04
2018-09-04T09:52:46.552Z,1011.97
2018-09-04T09:53:56.675Z,1012
2018-09-04T09:55:06.278Z,1012.03
2018-09-04T09:56:15.731Z,1012.03
2018-09-04T09:57:25.866Z,1012.02
2018-09-04T09:58:35.147Z,1012.06
2018-09-04T09:59:44.549Z,1012.04
2018-09-04T10:00:54.612Z,1012
2018-09-04T10:02:04.637Z,1012
2018-09-04T10:03:14.061Z,1011.95
2018-09-04T10:04:23.218Z,1011.95
2018-09-04T10:05:32.925Z,1011.94
2018-09-04T10:06:42.405Z,1011.94
2018-09-04T10:07:52.251Z,1011.91
2018-09-04T10:09:01.939Z,1011.93
2018-09-04T10:10:11.463Z,1011.93
2018-09-04T10:11:21.572Z,1011.9
2018-09-04T10:12:31.006Z,1011.94
2018-09-04T10:13:40.164Z,1011.93
2018-09-04T10:14:49.581Z,1011.92
2018-09-04T10:15:59.023Z,1011.91
2018-09-04T10:17:07.934Z,1011.91
2018-09-04T10:18:17.870Z,1011.89
2018-09-04T10:19:27.317Z,1011.84
2018-09-04T10:20:37.253Z,1011.83
2018-09-04T10:21:46.437Z,1011.81
2018-09-04T10:22:56.113Z,1011.81
2018-09-04T10:24:05.877Z,1011.8
2018-09-04T10:25:15.299Z,1011.78
2018-09-04T10:26:25.049Z,1011.78
2018-09-04T10:27:35.162Z,1011.77
2018-09-04T10:28:44.641Z,1011.76
2018-09-04T10:29:54.306Z,1011.75
2018-09-04T10:31:03.994Z,1011.74
2018-09-04T10:32:13.160Z,1011.72
2018-09-04T10:33:22.837Z,1011.75
2018-09-04T10:34:31.736Z,1011.75
2018-09-04T10:35:41.505Z,1011.74
2018-09-04T10:36:51.282Z,1011.75
2018-09-04T10:38:00.996Z,1011.76
2018-09-04T10:39:10.414Z,1011.77
2018-09-04T10:40:20.095Z,1011.77
2018-09-04T10:41:30.085Z,1011.74
2018-09-04T10:42:39.277Z,1011.75
2018-09-04T10:43:48.703Z,1011.76
2018-09-04T10:44:57.860Z,1011.75
2018-09-04T10:46:07.018Z,1011.71
2018-09-04T10:47:16.691Z,1011.7
2018-09-04T10:48:26.369Z,1011.69
2018-09-04T10:49:35.805Z,1011.66
2018-09-04T10:50:44.986Z,1011.71
2018-09-04T10:51:54.669Z,1011.69
2018-09-04T10:53:04.099Z,1011.67
2018-09-04T10:54:13.812Z,1011.67
2018-09-04T10:55:22.739Z,1011.67
2018-09-04T10:56:32.167Z,1011.67
2018-09-04T10:57:41.430Z,1011.63
2018-09-04T10:58:51.656Z,1011.65
2018-09-04T11:00:01.341Z,1011.64
2018-09-04T11:01:10.775Z,1011.67
2018-09-04T11:02:20.753Z,1011.66
2018-09-04T11:03:31.087Z,1011.62
2018-09-04T11:04:40.521Z,1011.67
2018-09-04T11:05:50.457Z,1011.65
2018-09-04T11:07:00.555Z,1011.67
2018-09-04T11:08:09.990Z,1011.66
2018-09-04T11:09:18.940Z,1011.65
2018-09-04T11:10:28.967Z,1011.65
2018-09-04T11:11:38.642Z,1011.66
2018-09-04T11:12:48.498Z,1011.63
2018-09-04T11:13:58.177Z,1011.64
2018-09-04T11:15:07.848Z,1011.63
2018-09-04T11:16:17.271Z,1011.65
2018-09-04T11:17:26.687Z,1011.66
2018-09-04T11:18:35.899Z,1011.65
2018-09-04T11:19:44.805Z,1011.63
2018-09-04T11:20:53.989Z,1011.61
2018-09-04T11:22:03.855Z,1011.6
2018-09-04T11:23:13.289Z,1011.69
2018-09-04T11:24:22.518Z,1011.62
2018-09-04T11:25:31.685Z,1011.58
2018-09-04T11:26:41.113Z,1011.56
2018-09-04T11:27:51.063Z,1011.58
2018-09-04T11:29:00.774Z,1011.59
2018-09-04T11:30:10.713Z,1011.55
2018-09-04T11:31:20.655Z,1011.57
2018-09-04T11:32:30.352Z,1011.59
2018-09-04T11:33:40.042Z,1011.56
2018-09-04T11:34:48.939Z,1011.58
2018-09-04T11:35:58.407Z,1011.56
2018-09-04T11:37:08.042Z,1011.56
2018-09-04T11:38:18.004Z,1011.57
2018-09-04T11:39:27.420Z,1011.55
2018-09-04T11:40:37.159Z,1011.52
2018-09-04T11:41:48.023Z,1011.54
2018-09-04T11:42:57.223Z,1011.54
2018-09-04T11:44:07.094Z,1011.5
2018-09-04T11:45:17.452Z,1011.52
2018-09-04T11:46:26.986Z,1011.54
2018-09-04T11:47:36.434Z,1011.53
2018-09-04T11:48:46.629Z,1011.52
2018-09-04T11:49:56.956Z,1011.52
2018-09-04T11:51:06.649Z,1011.49
2018-09-04T11:52:16.368Z,1011.51
2018-09-04T11:53:26.195Z,1011.47
2018-09-04T11:54:35.933Z,1011.49
2018-09-04T11:55:45.443Z,1011.51
2018-09-04T11:56:54.870Z,1011.51
2018-09-04T11:58:04.284Z,1011.49
2018-09-04T11:59:13.728Z,1011.52
2018-09-04T12:00:23.663Z,1011.5
2018-09-04T12:01:33.339Z,1011.49
2018-09-04T12:02:43.027Z,1011.47
2018-09-04T12:03:51.956Z,1011.5
2018-09-04T12:05:01.644Z,1011.48
2018-09-04T12:06:11.331Z,1011.44
2018-09-04T12:07:20.503Z,1011.48
2018-09-04T12:08:29.938Z,1011.49
2018-09-04T12:09:39.878Z,1011.49
2018-09-04T12:10:49.297Z,1011.46
2018-09-04T12:11:58.798Z,1011.47
2018-09-04T12:13:07.981Z,1011.49
2018-09-04T12:14:18.189Z,1011.48
2018-09-04T12:15:27.093Z,1011.47
2018-09-04T12:16:36.367Z,1011.51
2018-09-04T12:17:46.040Z,1011.52
2018-09-04T12:18:55.803Z,1011.51
2018-09-04T12:20:05.687Z,1011.51
2018-09-04T12:21:15.157Z,1011.46
2018-09-04T12:22:25.132Z,1011.48
2018-09-04T12:23:34.876Z,1011.48
2018-09-04T12:24:43.848Z,1011.49
2018-09-04T12:25:53.942Z,1011.46
2018-09-04T12:27:03.145Z,1011.46
2018-09-04T12:28:13.207Z,1011.46
2018-09-04T12:29:22.905Z,1011.48
2018-09-04T12:30:32.338Z,1011.46
2018-09-04T12:31:41.765Z,1011.42
2018-09-04T12:32:51.193Z,1011.42
2018-09-04T12:34:00.904Z,1011.36
2018-09-04T12:35:11.204Z,1011.35
2018-09-04T12:36:20.409Z,1011.36
2018-09-04T12:37:29.643Z,1011.32
2018-09-04T12:38:38.803Z,1011.33
2018-09-04T12:39:48.503Z,1011.32
2018-09-04T12:40:58.176Z,1011.33
2018-09-04T12:42:07.667Z,1011.32
2018-09-04T12:43:16.571Z,1011.34
2018-09-04T12:44:25.837Z,1011.32
2018-09-04T12:45:35.955Z,1011.28
2018-09-04T12:46:45.920Z,1011.25
2018-09-04T12:47:55.376Z,1011.27
2018-09-04T12:49:04.937Z,1011.26
2018-09-04T12:50:14.374Z,1011.29
2018-09-04T12:51:24.311Z,1011.31
2018-09-04T12:52:33.486Z,1011.32
2018-09-04T12:53:43.225Z,1011.35
2018-09-04T12:54:52.930Z,1011.37
2018-09-04T12:56:03.052Z,1011.35
2018-09-04T12:57:12.479Z,1011.33
2018-09-04T12:58:21.902Z,1011.35
2018-09-04T12:59:31.363Z,1011.29
2018-09-04T13:00:40.277Z,1011.32
2018-09-04T13:01:49.946Z,1011.27
2018-09-04T13:02:59.120Z,1011.25
2018-09-04T13:04:08.536Z,1011.27
2018-09-04T13:05:17.705Z,1011.19
2018-09-04T13:06:27.123Z,1011.29
2018-09-04T13:07:36.800Z,1011.27
2018-09-04T13:08:46.472Z,1011.31
2018-09-04T13:09:56.571Z,1011.25
2018-09-04T13:11:05.737Z,1011.31
2018-09-04T13:12:14.917Z,1011.25
2018-09-04T13:13:24.586Z,1011.23
2018-09-04T13:14:34.595Z,1011.24
2018-09-04T13:15:44.661Z,1011.19
2018-09-04T13:16:54.124Z,1011.27
2018-09-04T13:18:03.550Z,1011.24
2018-09-04T13:19:12.778Z,1011.21
2018-09-04T13:20:21.939Z,1011.19
2018-09-04T13:21:31.585Z,1011.29
2018-09-04T13:22:41.010Z,1011.19
2018-09-04T13:23:50.172Z,1011.18
2018-09-04T13:24:59.596Z,1011.2
2018-09-04T13:26:08.765Z,1011.14
2018-09-04T13:27:18.189Z,1011.15
2018-09-04T13:28:27.362Z,1011.16
2018-09-04T13:29:37.048Z,1011.11
2018-09-04T13:30:46.214Z,1011.18
2018-09-04T13:31:56.145Z,1011.09
2018-09-04T13:33:05.313Z,1011.11
2018-09-04T13:34:14.855Z,1011.11
2018-09-04T13:35:24.538Z,1011.11
2018-09-04T13:36:34.001Z,1011.05
2018-09-04T13:37:43.963Z,1011.06
2018-09-04T13:38:53.902Z,1011.02
2018-09-04T13:40:03.596Z,1011.04
2018-09-04T13:41:12.509Z,1010.97
2018-09-04T13:42:22.200Z,1010.95
2018-09-04T13:43:31.917Z,1010.99
2018-09-04T13:44:41.133Z,1010.97
2018-09-04T13:45:50.307Z,1011.01
2018-09-04T13:46:58.956Z,1010.98
2018-09-04T13:48:08.649Z,1011
2018-09-04T13:49:18.357Z,1011.04
2018-09-04T13:50:29.050Z,1011.05
2018-09-04T13:51:38.477Z,1011.05
2018-09-04T13:52:47.645Z,1011
2018-09-04T13:53:57.074Z,1011.02
2018-09-04T13:55:06.246Z,1011.02
2018-09-04T13:56:15.681Z,1011.02
2018-09-04T13:57:24.900Z,1011.06
2018-09-04T13:58:34.582Z,1011.07
2018-09-04T13:59:44.255Z,1011.01
2018-09-04T14:00:53.954Z,1011.05
2018-09-04T14:02:03.361Z,1011.01
2018-09-04T14:03:13.072Z,1011.02
2018-09-04T14:04:22.234Z,1011.04
2018-09-04T14:05:31.505Z,1010.98